PWSweather.com
Personal Weather Stations
Station Observations
IONTARIO88
Lincoln, ON L0R

Lincoln, ON L0R

Lat: 43.1763563, Lon: -79.4719525

Elevation: 297

Station Type: Davis Vantage Pro 2 Plus

http://www.beamsvillewx.ca

High Low Average
Temperature 82.6°F28.1°C 64.9°F18.3°C 73.2°F22.9°C
Dew Point 62.0°F16.7°C 50.1°F10.1°C 55.9°F13.3°C
Winds 6.0 mph 9.7 kmh Calm Calm 1.0 mph SSE1.6 kmh SSE
Wind Gusts 14.0 mph22.5 kmh -- 5.0 mph8.0 kmh
Humidity 83% 35% 57%
Pressure 30.14 in1020.7 mb 30.00 in1015.9 mb -
Precipitation 0.00 in0.0 mm - -
Hour Temp Dew Point Humidity Winds Wind Gusts Pressure Precip Precip Rate Daily Precip Total
12:00 AM 70.9°F21.6°C 58.1°F14.5°C 64% 5.0 mph S8.0 kmh S 10.0 mph16.1 kmh 30.00 in1015.9 mb 0.00 in0.0 mm 0.00 in0.0 mm 0.00 in0.0 mm
12:15 AM 70.7°F21.5°C 58.4°F14.7°C 65% 4.0 mph S6.4 kmh S 12.0 mph19.3 kmh 30.00 in1015.9 mb 0.00 in0.0 mm 0.00 in0.0 mm 0.00 in0.0 mm
12:30 AM 70.7°F21.5°C 58.8°F14.9°C 66% 6.0 mph S9.7 kmh S 14.0 mph22.5 kmh 30.00 in1015.9 mb 0.00 in0.0 mm 0.00 in0.0 mm 0.00 in0.0 mm
12:45 AM 70.3°F21.3°C 58.0°F14.4°C 65% 5.0 mph S8.0 kmh S 13.0 mph20.9 kmh 30.00 in1015.9 mb 0.00 in0.0 mm 0.00 in0.0 mm 0.00 in0.0 mm
01:00 AM 70.3°F21.3°C 58.0°F14.4°C 65% 6.0 mph S9.7 kmh S 13.0 mph20.9 kmh 30.00 in1015.9 mb 0.00 in0.0 mm 0.00 in0.0 mm 0.00 in0.0 mm
01:15 AM 70.0°F21.1°C 58.5°F14.7°C 67% 4.0 mph S6.4 kmh S 11.0 mph17.7 kmh 30.00 in1015.9 mb 0.00 in0.0 mm 0.00 in0.0 mm 0.00 in0.0 mm
01:30 AM 69.8°F21.0°C 58.3°F14.6°C 67% 5.0 mph SSW8.0 kmh SSW 14.0 mph22.5 kmh 30.00 in1015.9 mb 0.00 in0.0 mm 0.00 in0.0 mm 0.00 in0.0 mm
01:45 AM 69.6°F20.9°C 58.6°F14.8°C 68% 5.0 mph S8.0 kmh S 13.0 mph20.9 kmh 30.00 in1015.9 mb 0.00 in0.0 mm 0.00 in0.0 mm 0.00 in0.0 mm
02:00 AM 69.4°F20.8°C 58.8°F14.9°C 69% 3.0 mph S4.8 kmh S 10.0 mph16.1 kmh 30.00 in1015.9 mb 0.00 in0.0 mm 0.00 in0.0 mm 0.00 in0.0 mm
02:15 AM 69.3°F20.7°C 59.5°F15.3°C 71% 3.0 mph SSW4.8 kmh SSW 9.0 mph14.5 kmh 30.00 in1015.9 mb 0.00 in0.0 mm 0.00 in0.0 mm 0.00 in0.0 mm
02:30 AM 68.7°F20.4°C 59.3°F15.2°C 72% 1.0 mph S1.6 kmh S 5.0 mph8.0 kmh 30.00 in1015.9 mb 0.00 in0.0 mm 0.00 in0.0 mm 0.00 in0.0 mm
02:45 AM 68.5°F20.3°C 59.5°F15.3°C 73% 1.0 mph S1.6 kmh S 5.0 mph8.0 kmh 30.01 in1016.3 mb 0.00 in0.0 mm 0.00 in0.0 mm 0.00 in0.0 mm
03:00 AM 68.2°F20.1°C 59.6°F15.3°C 74% Calm Calm 3.0 mph4.8 kmh 30.02 in1016.6 mb 0.00 in0.0 mm 0.00 in0.0 mm 0.00 in0.0 mm
03:15 AM 67.6°F19.8°C 59.4°F15.2°C 75% 2.0 mph S3.2 kmh S 4.0 mph6.4 kmh 30.02 in1016.6 mb 0.00 in0.0 mm 0.00 in0.0 mm 0.00 in0.0 mm
03:30 AM 67.5°F19.7°C 59.6°F15.3°C 76% 2.0 mph S3.2 kmh S 4.0 mph6.4 kmh 30.02 in1016.6 mb 0.00 in0.0 mm 0.00 in0.0 mm 0.00 in0.0 mm
03:45 AM 66.9°F19.4°C 59.5°F15.3°C 77% Calm Calm 2.0 mph3.2 kmh 30.03 in1016.9 mb 0.00 in0.0 mm 0.00 in0.0 mm 0.00 in0.0 mm
04:00 AM 65.8°F18.8°C 59.1°F15.1°C 79% Calm Calm 1.0 mph1.6 kmh 30.03 in1016.9 mb 0.00 in0.0 mm 0.00 in0.0 mm 0.00 in0.0 mm
04:15 AM 64.9°F18.3°C 59.0°F15.0°C 81% Calm Calm 2.0 mph3.2 kmh 30.05 in1017.6 mb 0.00 in0.0 mm 0.00 in0.0 mm 0.00 in0.0 mm
04:30 AM 65.5°F18.6°C 59.8°F15.4°C 82% 2.0 mph S3.2 kmh S 5.0 mph8.0 kmh 30.05 in1017.6 mb 0.00 in0.0 mm 0.00 in0.0 mm 0.00 in0.0 mm
04:45 AM 66.0°F18.9°C 59.7°F15.4°C 80% 1.0 mph S1.6 kmh S 4.0 mph6.4 kmh 30.05 in1017.6 mb 0.00 in0.0 mm 0.00 in0.0 mm 0.00 in0.0 mm
05:00 AM 66.2°F19.0°C 59.8°F15.4°C 80% 1.0 mph S1.6 kmh S 4.0 mph6.4 kmh 30.05 in1017.6 mb 0.00 in0.0 mm 0.00 in0.0 mm 0.00 in0.0 mm
05:15 AM 66.0°F18.9°C 59.7°F15.4°C 80% Calm Calm 1.0 mph1.6 kmh 30.05 in1017.6 mb 0.00 in0.0 mm 0.00 in0.0 mm 0.00 in0.0 mm
05:30 AM 65.3°F18.5°C 59.7°F15.4°C 82% Calm Calm -- 30.05 in1017.6 mb 0.00 in0.0 mm 0.00 in0.0 mm 0.00 in0.0 mm
05:45 AM 65.5°F18.6°C 59.8°F15.4°C 82% Calm Calm 1.0 mph1.6 kmh 30.06 in1017.9 mb 0.00 in0.0 mm 0.00 in0.0 mm 0.00 in0.0 mm
06:00 AM 65.8°F18.8°C 60.5°F15.8°C 83% Calm Calm 3.0 mph4.8 kmh 30.06 in1017.9 mb 0.00 in0.0 mm 0.00 in0.0 mm 0.00 in0.0 mm
06:15 AM 67.1°F19.5°C 61.4°F16.3°C 82% 2.0 mph SSW3.2 kmh SSW 6.0 mph9.7 kmh 30.06 in1017.9 mb 0.00 in0.0 mm 0.00 in0.0 mm 0.00 in0.0 mm
06:30 AM 68.0°F20.0°C 61.2°F16.2°C 79% 3.0 mph SSW4.8 kmh SSW 7.0 mph11.3 kmh 30.07 in1018.3 mb 0.00 in0.0 mm 0.00 in0.0 mm 0.00 in0.0 mm
06:45 AM 68.4°F20.2°C 61.2°F16.2°C 78% 4.0 mph SSW6.4 kmh SSW 9.0 mph14.5 kmh 30.08 in1018.6 mb 0.00 in0.0 mm 0.00 in0.0 mm 0.00 in0.0 mm
07:00 AM 69.1°F20.6°C 61.6°F16.4°C 77% 1.0 mph SSW1.6 kmh SSW 6.0 mph9.7 kmh 30.08 in1018.6 mb 0.00 in0.0 mm 0.00 in0.0 mm 0.00 in0.0 mm
07:15 AM 69.3°F20.7°C 60.6°F15.9°C 74% 2.0 mph S3.2 kmh S 6.0 mph9.7 kmh 30.08 in1018.6 mb 0.00 in0.0 mm 0.00 in0.0 mm 0.00 in0.0 mm
07:30 AM 70.0°F21.1°C 60.9°F16.1°C 73% 1.0 mph S1.6 kmh S 6.0 mph9.7 kmh 30.08 in1018.6 mb 0.00 in0.0 mm 0.00 in0.0 mm 0.00 in0.0 mm
07:45 AM 70.3°F21.3°C 62.0°F16.7°C 75% 1.0 mph SSW1.6 kmh SSW 5.0 mph8.0 kmh 30.08 in1018.6 mb 0.00 in0.0 mm 0.00 in0.0 mm 0.00 in0.0 mm
08:00 AM 70.7°F21.5°C 61.6°F16.4°C 73% 2.0 mph SSW3.2 kmh SSW 7.0 mph11.3 kmh 30.08 in1018.6 mb 0.00 in0.0 mm 0.00 in0.0 mm 0.00 in0.0 mm
08:15 AM 70.9°F21.6°C 61.4°F16.3°C 72% 2.0 mph SSW3.2 kmh SSW 5.0 mph8.0 kmh 30.09 in1019.0 mb 0.00 in0.0 mm 0.00 in0.0 mm 0.00 in0.0 mm
08:30 AM 71.4°F21.9°C 61.1°F16.2°C 70% 1.0 mph SSW1.6 kmh SSW 6.0 mph9.7 kmh 30.09 in1019.0 mb 0.00 in0.0 mm 0.00 in0.0 mm 0.00 in0.0 mm
08:45 AM 71.8°F22.1°C 61.9°F16.6°C 71% 2.0 mph SSW3.2 kmh SSW 5.0 mph8.0 kmh 30.09 in1019.0 mb 0.00 in0.0 mm 0.00 in0.0 mm 0.00 in0.0 mm
09:00 AM 72.1°F22.3°C 61.0°F16.1°C 68% 2.0 mph SSW3.2 kmh SSW 7.0 mph11.3 kmh 30.09 in1019.0 mb 0.00 in0.0 mm 0.00 in0.0 mm 0.00 in0.0 mm
09:15 AM 72.7°F22.6°C 61.1°F16.2°C 67% 2.0 mph S3.2 kmh S 7.0 mph11.3 kmh 30.09 in1019.0 mb 0.00 in0.0 mm 0.00 in0.0 mm 0.00 in0.0 mm
09:30 AM 73.0°F22.8°C 60.6°F15.9°C 65% 3.0 mph S4.8 kmh S 7.0 mph11.3 kmh 30.10 in1019.3 mb 0.00 in0.0 mm 0.00 in0.0 mm 0.00 in0.0 mm
09:45 AM 73.0°F22.8°C 61.0°F16.1°C 66% 2.0 mph S3.2 kmh S 6.0 mph9.7 kmh 30.10 in1019.3 mb 0.00 in0.0 mm 0.00 in0.0 mm 0.00 in0.0 mm
10:00 AM 73.6°F23.1°C 61.1°F16.2°C 65% 2.0 mph SSW3.2 kmh SSW 6.0 mph9.7 kmh 30.10 in1019.3 mb 0.00 in0.0 mm 0.00 in0.0 mm 0.00 in0.0 mm
10:15 AM 73.9°F23.3°C 60.1°F15.6°C 62% 2.0 mph SSW3.2 kmh SSW 7.0 mph11.3 kmh 30.10 in1019.3 mb 0.00 in0.0 mm 0.00 in0.0 mm 0.00 in0.0 mm
10:30 AM 74.3°F23.5°C 59.0°F15.0°C 59% 2.0 mph SSW3.2 kmh SSW 6.0 mph9.7 kmh 30.10 in1019.3 mb 0.00 in0.0 mm 0.00 in0.0 mm 0.00 in0.0 mm
10:45 AM 74.3°F23.5°C 59.0°F15.0°C 59% 2.0 mph SSW3.2 kmh SSW 5.0 mph8.0 kmh 30.10 in1019.3 mb 0.00 in0.0 mm 0.00 in0.0 mm 0.00 in0.0 mm
11:00 AM 74.8°F23.8°C 59.1°F15.1°C 58% 3.0 mph SSW4.8 kmh SSW 7.0 mph11.3 kmh 30.11 in1019.6 mb 0.00 in0.0 mm 0.00 in0.0 mm 0.00 in0.0 mm
11:15 AM 75.6°F24.2°C 57.2°F14.0°C 53% 2.0 mph SSW3.2 kmh SSW 7.0 mph11.3 kmh 30.11 in1019.6 mb 0.00 in0.0 mm 0.00 in0.0 mm 0.00 in0.0 mm
11:30 AM 76.3°F24.6°C 56.8°F13.8°C 51% 2.0 mph SSW3.2 kmh SSW 5.0 mph8.0 kmh 30.11 in1019.6 mb 0.00 in0.0 mm 0.00 in0.0 mm 0.00 in0.0 mm
11:45 AM 76.6°F24.8°C 56.6°F13.7°C 50% 2.0 mph SSW3.2 kmh SSW 5.0 mph8.0 kmh 30.10 in1019.3 mb 0.00 in0.0 mm 0.00 in0.0 mm 0.00 in0.0 mm
12:00 PM 77.2°F25.1°C 52.3°F11.3°C 42% 1.0 mph SSW1.6 kmh SSW 5.0 mph8.0 kmh 30.10 in1019.3 mb 0.00 in0.0 mm 0.00 in0.0 mm 0.00 in0.0 mm
12:15 PM 78.4°F25.8°C 50.7°F10.4°C 38% 1.0 mph SSW1.6 kmh SSW 7.0 mph11.3 kmh 30.10 in1019.3 mb 0.00 in0.0 mm 0.00 in0.0 mm 0.00 in0.0 mm
12:30 PM 79.9°F26.6°C 50.5°F10.3°C 36% 2.0 mph SSW3.2 kmh SSW 6.0 mph9.7 kmh 30.10 in1019.3 mb 0.00 in0.0 mm 0.00 in0.0 mm 0.00 in0.0 mm
12:45 PM 79.5°F26.4°C 50.2°F10.1°C 36% 2.0 mph SW3.2 kmh SW 7.0 mph11.3 kmh 30.10 in1019.3 mb 0.00 in0.0 mm 0.00 in0.0 mm 0.00 in0.0 mm
01:00 PM 79.9°F26.6°C 52.7°F11.5°C 39% 2.0 mph SW3.2 kmh SW 5.0 mph8.0 kmh 30.10 in1019.3 mb 0.00 in0.0 mm 0.00 in0.0 mm 0.00 in0.0 mm
01:15 PM 80.4°F26.9°C 52.5°F11.4°C 38% Calm Calm 6.0 mph9.7 kmh 30.09 in1019.0 mb 0.00 in0.0 mm 0.00 in0.0 mm 0.00 in0.0 mm
01:30 PM 81.1°F27.3°C 51.7°F10.9°C 36% 1.0 mph SW1.6 kmh SW 5.0 mph8.0 kmh 30.09 in1019.0 mb 0.00 in0.0 mm 0.00 in0.0 mm 0.00 in0.0 mm
01:45 PM 81.5°F27.5°C 52.7°F11.5°C 37% 1.0 mph SSW1.6 kmh SSW 5.0 mph8.0 kmh 30.08 in1018.6 mb 0.00 in0.0 mm 0.00 in0.0 mm 0.00 in0.0 mm
02:00 PM 82.0°F27.8°C 51.7°F10.9°C 35% 2.0 mph SSW3.2 kmh SSW 7.0 mph11.3 kmh 30.09 in1019.0 mb 0.00 in0.0 mm 0.00 in0.0 mm 0.00 in0.0 mm
02:15 PM 82.6°F28.1°C 52.2°F11.2°C 35% Calm Calm 5.0 mph8.0 kmh 30.08 in1018.6 mb 0.00 in0.0 mm 0.00 in0.0 mm 0.00 in0.0 mm
02:30 PM 81.3°F27.4°C 51.0°F10.6°C 35% 1.0 mph SW1.6 kmh SW 8.0 mph12.9 kmh 30.08 in1018.6 mb 0.00 in0.0 mm 0.00 in0.0 mm 0.00 in0.0 mm
02:45 PM 81.5°F27.5°C 51.2°F10.7°C 35% 1.0 mph SW1.6 kmh SW 5.0 mph8.0 kmh 30.08 in1018.6 mb 0.00 in0.0 mm 0.00 in0.0 mm 0.00 in0.0 mm
03:00 PM 81.9°F27.7°C 53.0°F11.7°C 37% 1.0 mph SW1.6 kmh SW 6.0 mph9.7 kmh 30.08 in1018.6 mb 0.00 in0.0 mm 0.00 in0.0 mm 0.00 in0.0 mm
03:15 PM 81.3°F27.4°C 51.0°F10.6°C 35% 2.0 mph SW3.2 kmh SW 8.0 mph12.9 kmh 30.08 in1018.6 mb 0.00 in0.0 mm 0.00 in0.0 mm 0.00 in0.0 mm
03:30 PM 81.5°F27.5°C 52.7°F11.5°C 37% 1.0 mph SW1.6 kmh SW 4.0 mph6.4 kmh 30.08 in1018.6 mb 0.00 in0.0 mm 0.00 in0.0 mm 0.00 in0.0 mm
03:45 PM 81.0°F27.2°C 51.5°F10.8°C 36% 1.0 mph SW1.6 kmh SW 6.0 mph9.7 kmh 30.08 in1018.6 mb 0.00 in0.0 mm 0.00 in0.0 mm 0.00 in0.0 mm
04:00 PM 80.4°F26.9°C 51.0°F10.6°C 36% 1.0 mph SW1.6 kmh SW 6.0 mph9.7 kmh 30.09 in1019.0 mb 0.00 in0.0 mm 0.00 in0.0 mm 0.00 in0.0 mm
04:15 PM 80.2°F26.8°C 50.1°F10.1°C 35% 1.0 mph SW1.6 kmh SW 7.0 mph11.3 kmh 30.09 in1019.0 mb 0.00 in0.0 mm 0.00 in0.0 mm 0.00 in0.0 mm
04:30 PM 80.4°F26.9°C 51.8°F11.0°C 37% 1.0 mph SW1.6 kmh SW 6.0 mph9.7 kmh 30.09 in1019.0 mb 0.00 in0.0 mm 0.00 in0.0 mm 0.00 in0.0 mm
04:45 PM 80.2°F26.8°C 50.9°F10.5°C 36% 1.0 mph SW1.6 kmh SW 5.0 mph8.0 kmh 30.09 in1019.0 mb 0.00 in0.0 mm 0.00 in0.0 mm 0.00 in0.0 mm
05:00 PM 80.4°F26.9°C 51.8°F11.0°C 37% 1.0 mph SW1.6 kmh SW 4.0 mph6.4 kmh 30.08 in1018.6 mb 0.00 in0.0 mm 0.00 in0.0 mm 0.00 in0.0 mm
05:15 PM 80.2°F26.8°C 51.6°F10.9°C 37% Calm Calm 4.0 mph6.4 kmh 30.08 in1018.6 mb 0.00 in0.0 mm 0.00 in0.0 mm 0.00 in0.0 mm
05:30 PM 80.4°F26.9°C 51.0°F10.6°C 36% Calm Calm 2.0 mph3.2 kmh 30.08 in1018.6 mb 0.00 in0.0 mm 0.00 in0.0 mm 0.00 in0.0 mm
05:45 PM 80.1°F26.7°C 51.4°F10.8°C 37% Calm Calm 4.0 mph6.4 kmh 30.08 in1018.6 mb 0.00 in0.0 mm 0.00 in0.0 mm 0.00 in0.0 mm
06:00 PM 79.5°F26.4°C 51.7°F10.9°C 38% Calm Calm -- 30.08 in1018.6 mb 0.00 in0.0 mm 0.00 in0.0 mm 0.00 in0.0 mm
06:15 PM 79.5°F26.4°C 51.0°F10.6°C 37% Calm Calm 2.0 mph3.2 kmh 30.07 in1018.3 mb 0.00 in0.0 mm 0.00 in0.0 mm 0.00 in0.0 mm
06:30 PM 79.5°F26.4°C 51.0°F10.6°C 37% Calm Calm -- 30.07 in1018.3 mb 0.00 in0.0 mm 0.00 in0.0 mm 0.00 in0.0 mm
06:45 PM 79.2°F26.2°C 51.4°F10.8°C 38% Calm Calm -- 30.07 in1018.3 mb 0.00 in0.0 mm 0.00 in0.0 mm 0.00 in0.0 mm
07:00 PM 79.0°F26.1°C 51.9°F11.1°C 39% Calm Calm -- 30.07 in1018.3 mb 0.00 in0.0 mm 0.00 in0.0 mm 0.00 in0.0 mm
07:15 PM 78.4°F25.8°C 52.1°F11.2°C 40% Calm Calm -- 30.08 in1018.6 mb 0.00 in0.0 mm 0.00 in0.0 mm 0.00 in0.0 mm
07:30 PM 77.9°F25.5°C 51.6°F10.9°C 40% Calm Calm -- 30.08 in1018.6 mb 0.00 in0.0 mm 0.00 in0.0 mm 0.00 in0.0 mm
07:45 PM 77.2°F25.1°C 51.7°F10.9°C 41% Calm Calm -- 30.08 in1018.6 mb 0.00 in0.0 mm 0.00 in0.0 mm 0.00 in0.0 mm
08:00 PM 76.3°F24.6°C 51.5°F10.8°C 42% Calm Calm -- 30.08 in1018.6 mb 0.00 in0.0 mm 0.00 in0.0 mm 0.00 in0.0 mm
08:15 PM 75.0°F23.9°C 52.2°F11.2°C 45% Calm Calm -- 30.08 in1018.6 mb 0.00 in0.0 mm 0.00 in0.0 mm 0.00 in0.0 mm
08:30 PM 73.8°F23.2°C 53.4°F11.9°C 49% Calm Calm -- 30.09 in1019.0 mb 0.00 in0.0 mm 0.00 in0.0 mm 0.00 in0.0 mm
08:45 PM 72.1°F22.3°C 55.1°F12.8°C 55% Calm Calm -- 30.10 in1019.3 mb 0.00 in0.0 mm 0.00 in0.0 mm 0.00 in0.0 mm
09:00 PM 71.1°F21.7°C 54.1°F12.3°C 55% Calm Calm -- 30.10 in1019.3 mb 0.00 in0.0 mm 0.00 in0.0 mm 0.00 in0.0 mm
09:15 PM 70.2°F21.2°C 53.7°F12.1°C 56% Calm Calm -- 30.10 in1019.3 mb 0.00 in0.0 mm 0.00 in0.0 mm 0.00 in0.0 mm
09:30 PM 69.6°F20.9°C 53.7°F12.1°C 57% Calm Calm -- 30.11 in1019.6 mb 0.00 in0.0 mm 0.00 in0.0 mm 0.00 in0.0 mm
09:45 PM 69.3°F20.7°C 52.4°F11.3°C 55% Calm Calm -- 30.11 in1019.6 mb 0.00 in0.0 mm 0.00 in0.0 mm 0.00 in0.0 mm
10:00 PM 68.7°F20.4°C 52.9°F11.6°C 57% Calm Calm -- 30.12 in1020.0 mb 0.00 in0.0 mm 0.00 in0.0 mm 0.00 in0.0 mm
10:15 PM 67.8°F19.9°C 52.0°F11.1°C 57% Calm Calm -- 30.13 in1020.3 mb 0.00 in0.0 mm 0.00 in0.0 mm 0.00 in0.0 mm
10:30 PM 67.3°F19.6°C 52.5°F11.4°C 59% Calm Calm -- 30.13 in1020.3 mb 0.00 in0.0 mm 0.00 in0.0 mm 0.00 in0.0 mm
10:45 PM 66.7°F19.3°C 52.0°F11.1°C 59% Calm Calm -- 30.13 in1020.3 mb 0.00 in0.0 mm 0.00 in0.0 mm 0.00 in0.0 mm
11:00 PM 66.6°F19.2°C 52.2°F11.2°C 60% Calm Calm -- 30.13 in1020.3 mb 0.00 in0.0 mm 0.00 in0.0 mm 0.00 in0.0 mm
11:15 PM 66.0°F18.9°C 52.6°F11.4°C 62% Calm Calm -- 30.14 in1020.7 mb 0.00 in0.0 mm 0.00 in0.0 mm 0.00 in0.0 mm
11:30 PM 65.7°F18.7°C 53.1°F11.7°C 64% Calm Calm -- 30.14 in1020.7 mb 0.00 in0.0 mm 0.00 in0.0 mm 0.00 in0.0 mm
11:45 PM 65.5°F18.6°C 53.8°F12.1°C 66% Calm Calm -- 30.14 in1020.7 mb 0.00 in0.0 mm 0.00 in0.0 mm 0.00 in0.0 mm